Time;durP1;ratioP1;P1;durP2;ratioP2;P2;SDS_P1;SDS_P2;PMS_P1;PMS_P2;Temp;Humidity;BMP_temperature;BMP_pressure;BME280_temperature;BME280_humidity;BME280_pressure;Samples;Min_cycle;Max_cycle;Signal;HPM_P1;HPM_P2
2022/10/05 00:01:15;;;;;;;;;;;;;;;14.72;77.79;101716.47;5022762;28;19921;-73
2022/10/05 00:03:40;;;;;;;;;;;;;;;14.71;78.09;101713.81;5023145;28;19917;-73
2022/10/05 00:06:08;;;;;;;;;;;;;;;14.70;78.50;101720.81;5020482;28;19921;-73
2022/10/05 00:08:34;;;;;;;;;;;;;;;14.70;78.65;101726.06;5023743;28;19927;-73
2022/10/05 00:10:59;;;;;;;;;;;;;;;14.70;78.37;101720.81;5032324;28;19922;-73
2022/10/05 00:13:26;;;;;;;;;;;;;;;14.69;78.44;101719.03;5034245;28;19928;-73
2022/10/05 00:16:03;;;;;;;;;;;;;;;14.68;78.43;101717.25;5033511;28;20396;-73
2022/10/05 00:18:28;;;;;;;;;;;;;;;14.68;78.59;101717.25;5024941;28;19917;-73
2022/10/05 00:20:53;;;;;;;;;;;;;;;14.70;78.61;101712.94;5024579;28;20293;-73
2022/10/05 00:23:24;;;;;;;;;;;;;;;14.69;78.39;101705.03;5021437;28;19932;-73
2022/10/05 00:25:50;;;;;;;;;;;;;;;14.68;78.29;101691.03;5020568;28;19936;-73
2022/10/05 00:28:17;;;;;;;;;;;;;;;14.68;78.77;101703.25;5022330;28;19916;-67
2022/10/05 00:30:42;;;;;;;;;;;;;;;14.66;78.83;101698.00;5021606;28;19940;-67
2022/10/05 00:33:07;;;;;;;;;;;;;;;14.65;78.71;101701.47;5021644;28;20411;-67
2022/10/05 00:35:34;;;;;;;;;;;;;;;14.63;79.17;101705.81;5021104;28;19928;-67
2022/10/05 00:37:59;;;;;;;;;;;;;;;14.60;78.77;101708.34;5020114;28;19927;-67
2022/10/05 00:40:27;;;;;;;;;;;;;;;14.60;78.76;101695.22;5023927;28;19917;-67
2022/10/05 00:43:10;;;;;;;;;;;;;;;14.59;78.99;101693.44;5020791;28;19924;-67
2022/10/05 00:45:46;;;;;;;;;;;;;;;14.59;78.95;101696.06;5020110;28;20026;-67
2022/10/05 00:48:26;;;;;;;;;;;;;;;14.58;79.11;101696.91;5019688;28;19925;-67
2022/10/05 00:51:01;;;;;;;;;;;;;;;14.57;78.98;101697.75;5023408;28;19968;-67
2022/10/05 00:53:35;;;;;;;;;;;;;;;14.57;79.12;101697.75;5020025;28;19925;-67
2022/10/05 00:56:03;;;;;;;;;;;;;;;14.56;79.51;101690.75;5022024;28;19921;-67
2022/10/05 00:58:28;;;;;;;;;;;;;;;14.54;79.22;101692.44;5020305;28;19923;-67
2022/10/05 01:01:13;;;;;;;;;;;;;;;14.53;79.36;101691.56;5019872;28;20301;-67
2022/10/05 01:03:45;;;;;;;;;;;;;;;14.54;79.33;101695.06;5019467;28;19990;-67
2022/10/05 01:06:16;;;;;;;;;;;;;;;14.52;79.38;101688.91;5019193;28;19933;-67
2022/10/05 01:08:41;;;;;;;;;;;;;;;14.50;79.41;101682.78;5019439;28;19921;-67
2022/10/05 01:11:06;;;;;;;;;;;;;;;14.49;79.10;101686.22;5020780;28;19936;-66
2022/10/05 01:13:48;;;;;;;;;;;;;;;14.47;79.37;101680.97;5024920;28;19921;-67
2022/10/05 01:16:25;;;;;;;;;;;;;;;14.47;79.56;101669.56;5021114;28;19917;-66
2022/10/05 01:18:59;;;;;;;;;;;;;;;14.45;79.69;101666.91;5020916;28;19925;-66
2022/10/05 01:21:25;;;;;;;;;;;;;;;14.44;79.78;101665.16;5022794;28;19963;-67
2022/10/05 01:24:00;;;;;;;;;;;;;;;14.43;79.77;101672.13;5028368;28;19925;-67
2022/10/05 01:26:25;;;;;;;;;;;;;;;14.42;79.91;101667.75;5040494;28;20220;-67
2022/10/05 01:29:14;;;;;;;;;;;;;;;14.41;80.00;101655.50;5038584;28;20430;-67
2022/10/05 01:31:39;;;;;;;;;;;;;;;14.41;79.88;101659.84;5010261;28;19987;-67
2022/10/05 01:34:23;;;;;;;;;;;;;;;14.39;80.22;101657.19;5020510;28;19921;-67
2022/10/05 01:36:56;;;;;;;;;;;;;;;14.36;79.93;101656.25;5020426;28;20404;-73
2022/10/05 01:39:34;;;;;;;;;;;;;;;14.35;79.95;101660.63;5027212;28;20410;-73
2022/10/05 01:42:05;;;;;;;;;;;;;;;14.35;80.17;101657.09;5034356;28;20003;-73
2022/10/05 01:44:45;;;;;;;;;;;;;;;14.33;79.89;101657.06;5045253;28;19917;-73
2022/10/05 01:47:23;;;;;;;;;;;;;;;14.33;80.48;101656.19;5031790;28;19929;-73
2022/10/05 01:49:54;;;;;;;;;;;;;;;14.32;80.56;101647.41;5022320;28;20316;-73
2022/10/05 01:52:38;;;;;;;;;;;;;;;14.31;80.37;101648.28;5021041;28;19917;-73
2022/10/05 01:55:22;;;;;;;;;;;;;;;14.31;80.50;101648.28;5018551;28;19975;-73
2022/10/05 01:57:47;;;;;;;;;;;;;;;14.30;80.70;101638.66;5019092;28;19922;-74
2022/10/05 02:00:15;;;;;;;;;;;;;;;14.29;80.65;101636.88;5020359;28;20494;-73
2022/10/05 02:02:49;;;;;;;;;;;;;;;14.30;80.51;101629.91;5032880;28;19923;-73
2022/10/05 02:05:18;;;;;;;;;;;;;;;14.29;80.38;101628.13;5023089;28;19961;-73
2022/10/05 02:07:51;;;;;;;;;;;;;;;14.28;80.36;101624.63;5020295;28;20003;-73
2022/10/05 02:10:19;;;;;;;;;;;;;;;14.25;80.64;101628.06;5019561;28;19932;-73
2022/10/05 02:12:45;;;;;;;;;;;;;;;14.24;80.44;101617.56;5021058;28;19917;-73
2022/10/05 02:15:16;;;;;;;;;;;;;;;14.24;80.75;101612.31;5020681;28;19917;-74
2022/10/05 02:17:44;;;;;;;;;;;;;;;14.24;80.92;101617.56;5019285;28;20381;-73
2022/10/05 02:20:10;;;;;;;;;;;;;;;14.24;80.58;101615.81;5018871;28;19917;-73
2022/10/05 02:22:38;;;;;;;;;;;;;;;14.23;81.13;101616.66;5026362;28;20024;-73
2022/10/05 02:25:06;;;;;;;;;;;;;;;14.21;80.88;101609.63;5039149;28;19979;-74
2022/10/05 02:27:35;;;;;;;;;;;;;;;14.19;80.99;101606.97;5018496;28;19917;-73
2022/10/05 02:30:05;;;;;;;;;;;;;;;14.18;81.14;101601.69;5021084;28;19932;-73
2022/10/05 02:32:38;;;;;;;;;;;;;;;14.17;81.05;101599.94;5023378;28;19921;-73
2022/10/05 02:35:08;;;;;;;;;;;;;;;14.17;80.92;101597.31;5027664;28;19917;-73
2022/10/05 02:37:46;;;;;;;;;;;;;;;14.15;81.41;101591.13;5030267;28;20056;-67
2022/10/05 02:40:19;;;;;;;;;;;;;;;14.16;80.99;101590.28;5023694;28;19921;-67
2022/10/05 02:42:44;;;;;;;;;;;;;;;14.16;80.90;101590.28;5036400;28;20380;-67
2022/10/05 02:45:32;;;;;;;;;;;;;;;14.15;80.82;101581.56;5020209;28;19921;-66
2022/10/05 02:48:06;;;;;;;;;;;;;;;14.14;81.29;101579.78;5019223;28;19925;-67
2022/10/05 02:50:34;;;;;;;;;;;;;;;14.13;81.24;101583.25;5020160;28;19925;-67
2022/10/05 02:53:20;;;;;;;;;;;;;;;14.13;81.17;101582.38;5027979;28;20380;-67
2022/10/05 02:56:04;;;;;;;;;;;;;;;14.14;81.50;101574.53;5019077;28;19917;-66
2022/10/05 02:58:43;;;;;;;;;;;;;;;14.14;81.26;101574.53;5019781;28;19971;-67
2022/10/05 03:01:33;;;;;;;;;;;;;;;14.15;81.35;101568.44;5023009;28;19925;-67
2022/10/05 03:04:06;;;;;;;;;;;;;;;14.16;81.27;101564.06;5019064;28;19936;-67
2022/10/05 03:06:36;;;;;;;;;;;;;;;14.15;81.34;101557.06;5017374;28;19917;-67
2022/10/05 03:09:03;;;;;;;;;;;;;;;14.14;81.71;101557.94;5018971;28;20023;-67
2022/10/05 03:11:46;;;;;;;;;;;;;;;14.12;81.51;101557.00;5027282;28;19932;-67
2022/10/05 03:14:17;;;;;;;;;;;;;;;14.12;81.77;101557.00;5033784;28;19916;-66
2022/10/05 03:16:48;;;;;;;;;;;;;;;14.12;81.32;101554.38;5027600;28;19928;-67
2022/10/05 03:19:16;;;;;;;;;;;;;;;14.11;81.40;101550.88;5019200;28;19925;-67
2022/10/05 03:21:41;;;;;;;;;;;;;;;14.11;81.16;101548.28;5022843;28;19939;-67
2022/10/05 03:24:14;;;;;;;;;;;;;;;14.11;81.40;101555.22;5027270;28;20439;-67
2022/10/05 03:26:42;;;;;;;;;;;;;;;14.09;81.49;101544.72;5030805;28;19965;-67
2022/10/05 03:29:28;;;;;;;;;;;;;;;14.10;81.52;101554.34;5033772;28;19923;-67
2022/10/05 03:31:59;;;;;;;;;;;;;;;14.09;81.59;101560.44;5030982;28;19929;-67
2022/10/05 03:34:44;;;;;;;;;;;;;;;14.07;81.83;101563.03;5031096;28;19968;-67
2022/10/05 03:37:13;;;;;;;;;;;;;;;14.07;81.95;101554.28;5033137;28;19921;-73
2022/10/05 03:39:45;;;;;;;;;;;;;;;14.06;81.28;101548.19;5029383;28;19917;-73
2022/10/05 03:42:29;;;;;;;;;;;;;;;14.04;82.05;101544.63;5036272;28;20008;-74
2022/10/05 03:44:58;;;;;;;;;;;;;;;14.03;82.03;101547.22;5035979;28;19968;-73
2022/10/05 03:47:52;;;;;;;;;;;;;;;14.01;82.07;101543.69;5029912;28;20012;-74
2022/10/05 03:50:30;;;;;;;;;;;;;;;14.01;82.25;101546.31;5013952;28;20571;-73
2022/10/05 03:52:56;;;;;;;;;;;;;;;14.00;82.00;101548.03;5031267;28;20466;-73
2022/10/05 03:55:34;;;;;;;;;;;;;;;14.00;81.88;101552.41;5030031;28;20032;-73
2022/10/05 03:58:04;;;;;;;;;;;;;;;14.00;82.10;101548.03;5035713;28;19921;-73
2022/10/05 04:00:30;;;;;;;;;;;;;;;14.01;81.92;101548.94;5035143;28;19966;-73
2022/10/05 04:02:59;;;;;;;;;;;;;;;14.00;82.21;101550.66;5031091;28;19917;-73
2022/10/05 04:05:28;;;;;;;;;;;;;;;14.00;82.21;101553.28;5031553;28;19924;-73
2022/10/05 04:07:59;;;;;;;;;;;;;;;14.00;82.09;101557.63;5035086;28;20420;-73
2022/10/05 04:10:26;;;;;;;;;;;;;;;14.00;82.02;101549.78;5047496;28;19939;-73
2022/10/05 04:12:57;;;;;;;;;;;;;;;13.96;82.30;101556.72;5039866;28;19929;-74
2022/10/05 04:15:28;;;;;;;;;;;;;;;13.95;82.33;101557.53;5030231;28;19917;-73
2022/10/05 04:17:56;;;;;;;;;;;;;;;13.94;82.33;101561.00;5044904;28;19983;-73
2022/10/05 04:20:28;;;;;;;;;;;;;;;13.93;82.35;101554.00;5026623;28;19917;-73
2022/10/05 04:23:01;;;;;;;;;;;;;;;13.91;82.62;101560.94;5031270;28;20026;-73
2022/10/05 04:25:28;;;;;;;;;;;;;;;13.91;82.40;101558.34;5031918;28;19913;-73
2022/10/05 04:27:58;;;;;;;;;;;;;;;13.89;82.60;101557.44;5038430;28;20396;-73
2022/10/05 04:30:23;;;;;;;;;;;;;;;13.88;83.00;101547.78;5035274;28;19920;-73
2022/10/05 04:32:53;;;;;;;;;;;;;;;13.87;83.01;101548.63;5040482;28;19947;-73
2022/10/05 04:35:24;;;;;;;;;;;;;;;13.86;82.89;101550.38;5021269;28;20304;-73
2022/10/05 04:38:07;;;;;;;;;;;;;;;13.85;82.80;101543.34;5031598;28;20369;-73
2022/10/05 04:40:53;;;;;;;;;;;;;;;13.84;82.84;101544.19;5036929;28;19920;-73
2022/10/05 04:43:33;;;;;;;;;;;;;;;13.84;83.13;101536.34;5026104;28;20324;-73
2022/10/05 04:46:16;;;;;;;;;;;;;;;13.83;83.04;101538.94;5030070;28;19922;-73
2022/10/05 04:49:00;;;;;;;;;;;;;;;13.86;82.86;101536.38;5030589;28;19925;-73
2022/10/05 04:51:39;;;;;;;;;;;;;;;13.85;83.09;101525.03;5025422;28;20459;-73
2022/10/05 04:54:18;;;;;;;;;;;;;;;13.85;82.75;101534.63;5023239;28;20012;-73
2022/10/05 04:56:50;;;;;;;;;;;;;;;13.85;83.19;101535.50;5019839;28;20339;-73
2022/10/05 04:59:16;;;;;;;;;;;;;;;13.86;82.67;101528.50;5026215;28;19917;-73
2022/10/05 05:02:03;;;;;;;;;;;;;;;13.87;82.69;101530.28;5019753;28;19939;-74
2022/10/05 05:04:41;;;;;;;;;;;;;;;13.85;82.93;101525.03;5021107;28;19957;-73
2022/10/05 05:07:12;;;;;;;;;;;;;;;13.86;82.66;101526.81;5020751;28;19924;-67
2022/10/05 05:09:56;;;;;;;;;;;;;;;13.88;82.53;101526.84;5019796;28;19925;-66
2022/10/05 05:12:27;;;;;;;;;;;;;;;13.88;82.45;101524.22;5019194;28;19925;-67
2022/10/05 05:15:16;;;;;;;;;;;;;;;13.89;82.31;101531.22;5028529;28;19917;-67
2022/10/05 05:17:59;;;;;;;;;;;;;;;13.89;82.22;101528.59;5029488;28;20422;-67
2022/10/05 05:20:25;;;;;;;;;;;;;;;13.89;82.76;101518.13;5026792;28;19924;-67
2022/10/05 05:22:50;;;;;;;;;;;;;;;13.88;82.42;101517.22;5031770;28;19921;-66
2022/10/05 05:25:16;;;;;;;;;;;;;;;13.88;82.62;101522.47;5036665;28;20023;-67
2022/10/05 05:27:44;;;;;;;;;;;;;;;13.89;82.46;101515.50;5033348;28;19916;-66
2022/10/05 05:30:12;;;;;;;;;;;;;;;13.87;82.55;101512.81;5030269;28;20135;-67
2022/10/05 05:32:52;;;;;;;;;;;;;;;13.87;82.71;101525.06;5024634;28;20305;-67
2022/10/05 05:35:20;;;;;;;;;;;;;;;13.86;82.70;101512.78;5020454;28;19917;-67
2022/10/05 05:37:48;;;;;;;;;;;;;;;13.84;83.16;101518.00;5019119;28;20171;-67
2022/10/05 05:40:26;;;;;;;;;;;;;;;13.84;82.92;101515.38;5021009;28;20487;-67
2022/10/05 05:42:51;;;;;;;;;;;;;;;13.83;82.68;101508.41;5019501;28;19921;-66
2022/10/05 05:45:22;;;;;;;;;;;;;;;13.82;82.79;101504.00;5019728;28;19929;-66
2022/10/05 05:47:52;;;;;;;;;;;;;;;13.82;82.62;101506.63;5035791;28;19916;-67
2022/10/05 05:50:18;;;;;;;;;;;;;;;13.81;82.79;101498.75;5046364;28;19928;-67
2022/10/05 05:52:43;;;;;;;;;;;;;;;13.82;83.20;101503.13;5038495;28;19921;-66
2022/10/05 05:55:31;;;;;;;;;;;;;;;13.83;82.81;101502.25;5040904;28;19921;-66
2022/10/05 05:58:08;;;;;;;;;;;;;;;13.82;82.99;101495.28;5043323;28;19917;-67
2022/10/05 06:00:48;;;;;;;;;;;;;;;13.82;82.71;101495.28;5036387;28;19928;-66
2022/10/05 06:03:31;;;;;;;;;;;;;;;13.81;82.99;101497.00;5027308;28;20012;-66
2022/10/05 06:05:59;;;;;;;;;;;;;;;13.81;82.58;101498.75;5033983;28;19970;-67
2022/10/05 06:08:24;;;;;;;;;;;;;;;13.80;82.75;101487.38;5040909;28;19915;-74
2022/10/05 06:10:56;;;;;;;;;;;;;;;13.82;82.61;101497.91;5038040;28;20687;-73
2022/10/05 06:13:25;;;;;;;;;;;;;;;13.81;82.64;101496.13;5041924;28;19970;-73
2022/10/05 06:15:54;;;;;;;;;;;;;;;13.83;82.55;101504.88;5039342;28;19963;-73
2022/10/05 06:18:21;;;;;;;;;;;;;;;13.82;82.76;101500.53;5048863;28;19936;-73
2022/10/05 06:20:49;;;;;;;;;;;;;;;13.84;82.81;101501.41;5017232;28;19971;-73
2022/10/05 06:23:18;;;;;;;;;;;;;;;13.84;82.88;101498.81;5020325;28;19955;-73
2022/10/05 06:25:57;;;;;;;;;;;;;;;13.85;82.67;101497.97;5022800;28;20205;-74
2022/10/05 06:28:23;;;;;;;;;;;;;;;13.85;82.67;101490.97;5017222;28;20320;-74
2022/10/05 06:31:03;;;;;;;;;;;;;;;13.86;82.53;101486.59;5017764;28;20007;-73
2022/10/05 06:33:34;;;;;;;;;;;;;;;13.87;82.72;101488.38;5019863;28;20015;-77
2022/10/05 06:36:02;;;;;;;;;;;;;;;13.88;82.42;101482.28;5033511;28;19971;-76
2022/10/05 06:38:51;;;;;;;;;;;;;;;13.88;82.55;101491.03;5033424;28;20003;-75
2022/10/05 06:41:23;;;;;;;;;;;;;;;13.90;82.58;101493.69;5025408;28;19999;-73
2022/10/05 06:44:00;;;;;;;;;;;;;;;13.91;82.66;101491.09;5022873;28;19917;-74
2022/10/05 06:46:31;;;;;;;;;;;;;;;13.93;82.75;101488.50;5037584;28;19924;-73
2022/10/05 06:49:06;;;;;;;;;;;;;;;13.96;82.77;101495.53;5037394;28;19948;-71
2022/10/05 06:51:48;;;;;;;;;;;;;;;13.96;82.81;101496.44;5031703;28;19920;-73
2022/10/05 06:54:25;;;;;;;;;;;;;;;13.98;82.70;101486.00;5031635;28;19924;-75
2022/10/05 06:56:56;;;;;;;;;;;;;;;13.99;82.69;101491.25;5016439;28;20012;-73
2022/10/05 06:59:24;;;;;;;;;;;;;;;14.02;82.63;101493.03;5027305;28;19999;-72
2022/10/05 07:01:58;;;;;;;;;;;;;;;14.02;82.51;101501.81;5028498;28;19928;-72
2022/10/05 07:04:39;;;;;;;;;;;;;;;14.05;82.60;101493.13;5032221;28;19992;-72
2022/10/05 07:07:04;;;;;;;;;;;;;;;14.07;83.00;101496.66;5028140;28;20008;-66
2022/10/05 07:09:43;;;;;;;;;;;;;;;14.07;82.67;101492.28;5033046;28;20456;-65
2022/10/05 07:12:11;;;;;;;;;;;;;;;14.11;82.44;101502.81;5036040;28;19940;-67
2022/10/05 07:14:42;;;;;;;;;;;;;;;14.12;82.64;101497.63;5034499;28;19964;-65
2022/10/05 07:17:07;;;;;;;;;;;;;;;14.17;82.20;101495.09;5039191;28;19974;-66
2022/10/05 07:19:51;;;;;;;;;;;;;;;14.18;82.54;101494.22;5026660;28;19921;-67
2022/10/05 07:22:35;;;;;;;;;;;;;;;14.21;82.61;101499.53;5033298;28;19980;-67
2022/10/05 07:25:03;;;;;;;;;;;;;;;14.23;82.54;101503.94;5038716;28;19940;-66
2022/10/05 07:27:33;;;;;;;;;;;;;;;14.26;82.32;101505.75;5032050;28;19921;-66
2022/10/05 07:30:03;;;;;;;;;;;;;;;14.29;82.06;101492.69;5021140;28;20012;-66
2022/10/05 07:32:28;;;;;;;;;;;;;;;14.32;82.22;101502.34;5027365;28;19925;-65
2022/10/05 07:35:02;;;;;;;;;;;;;;;14.35;82.03;101494.53;5037679;28;20402;-66
2022/10/05 07:37:59;;;;;;;;;;;;;;;14.37;82.24;101504.22;5020676;28;19955;-71
2022/10/05 07:40:40;;;;;;;;;;;;;;;14.41;82.02;101494.66;5021252;28;20397;-71
2022/10/05 07:43:14;;;;;;;;;;;;;;;14.42;82.28;101499.03;5023380;28;19921;-73
2022/10/05 07:46:00;;;;;;;;;;;;;;;14.46;82.17;101506.13;5021592;28;19929;-73
2022/10/05 07:48:31;;;;;;;;;;;;;;;14.48;82.09;101503.53;5010645;28;19925;-73
2022/10/05 07:51:03;;;;;;;;;;;;;;;14.51;82.20;101503.56;5028340;28;19921;-73
2022/10/05 07:53:30;;;;;;;;;;;;;;;14.54;82.18;101509.78;5039228;28;19921;-73
2022/10/05 07:55:59;;;;;;;;;;;;;;;14.57;81.88;101506.28;5031307;28;19928;-73
2022/10/05 07:58:30;;;;;;;;;;;;;;;14.58;81.79;101511.59;5024926;28;19913;-72
2022/10/05 08:01:15;;;;;;;;;;;;;;;14.60;81.90;101509.88;5026442;28;20067;-73
2022/10/05 08:03:51;;;;;;;;;;;;;;;14.64;81.91;101510.81;5023957;28;20375;-73
2022/10/05 08:06:25;;;;;;;;;;;;;;;14.66;81.92;101503.00;5024066;28;19918;-73
2022/10/05 08:08:58;;;;;;;;;;;;;;;14.68;81.75;101501.28;5045220;28;20343;-74
2022/10/05 08:11:28;;;;;;;;;;;;;;;14.70;82.03;101500.47;5038971;28;19921;-74
2022/10/05 08:13:56;;;;;;;;;;;;;;;14.72;81.86;101506.59;5033403;28;19921;-73
2022/10/05 08:16:22;;;;;;;;;;;;;;;14.75;81.46;101504.03;5033345;28;19917;-73
2022/10/05 08:18:53;;;;;;;;;;;;;;;14.78;82.05;101493.59;5035906;28;19964;-73
2022/10/05 08:21:22;;;;;;;;;;;;;;;14.84;81.84;101499.81;5037281;28;20015;-73
2022/10/05 08:23:52;;;;;;;;;;;;;;;14.87;81.68;101486.72;5040433;28;19932;-73
2022/10/05 08:26:27;;;;;;;;;;;;;;;14.89;81.54;101485.03;5033062;28;19917;-73
2022/10/05 08:29:12;;;;;;;;;;;;;;;14.93;81.48;101486.81;5034821;28;20419;-73
2022/10/05 08:31:39;;;;;;;;;;;;;;;14.97;81.61;101480.78;5041272;28;19921;-73
2022/10/05 08:34:10;;;;;;;;;;;;;;;15.01;81.27;101479.97;5034063;28;19921;-73
2022/10/05 08:36:38;;;;;;;;;;;;;;;15.06;81.45;101475.69;5035420;28;19999;-74
2022/10/05 08:39:10;;;;;;;;;;;;;;;15.10;81.34;101484.47;5029766;28;19917;-73
2022/10/05 08:41:38;;;;;;;;;;;;;;;15.12;81.00;101472.28;5037123;28;19986;-73
2022/10/05 08:44:22;;;;;;;;;;;;;;;15.16;81.17;101473.19;5035205;28;19921;-73
2022/10/05 08:47:01;;;;;;;;;;;;;;;15.18;81.11;101484.56;5030050;28;20016;-72
2022/10/05 08:49:42;;;;;;;;;;;;;;;15.22;81.28;101474.16;5025107;28;20007;-73
2022/10/05 08:52:16;;;;;;;;;;;;;;;15.26;80.62;101475.06;5034554;28;19917;-73
2022/10/05 08:55:00;;;;;;;;;;;;;;;15.29;80.91;101467.25;5036946;28;20016;-73
2022/10/05 08:57:33;;;;;;;;;;;;;;;15.35;80.96;101469.06;5036796;28;19967;-73
2022/10/05 08:59:58;;;;;;;;;;;;;;;15.39;81.12;101466.50;5039831;28;19917;-73
2022/10/05 09:02:28;;;;;;;;;;;;;;;15.43;80.76;101463.06;5041019;28;19920;-73
2022/10/05 09:05:01;;;;;;;;;;;;;;;15.47;80.82;101458.75;5039398;28;20406;-74
2022/10/05 09:07:32;;;;;;;;;;;;;;;15.52;80.43;101461.44;5026923;28;19917;-73
2022/10/05 09:10:16;;;;;;;;;;;;;;;15.56;80.60;101452.72;5034020;28;20142;-73
2022/10/05 09:13:00;;;;;;;;;;;;;;;15.60;80.26;101458.03;5037587;28;20427;-73
2022/10/05 09:15:55;;;;;;;;;;;;;;;15.64;80.40;101451.97;5038175;28;19919;-72
2022/10/05 09:18:39;;;;;;;;;;;;;;;15.70;80.23;101455.50;5035259;28;19920;-73
2022/10/05 09:21:12;;;;;;;;;;;;;;;15.74;80.25;101454.69;5029102;28;19920;-73
2022/10/05 09:23:42;;;;;;;;;;;;;;;15.79;80.12;101442.53;5039330;28;19913;-73
2022/10/05 09:26:08;;;;;;;;;;;;;;;15.82;79.82;101451.31;5043959;28;20540;-73
2022/10/05 09:28:41;;;;;;;;;;;;;;;15.86;79.97;101453.97;5028597;28;20491;-72
2022/10/05 09:31:20;;;;;;;;;;;;;;;15.92;79.71;101448.81;5027091;28;20305;-74
2022/10/05 09:34:04;;;;;;;;;;;;;;;15.95;79.56;101448.84;5028224;28;20355;-74
2022/10/05 09:36:38;;;;;;;;;;;;;;;15.98;79.82;101443.63;5038401;28;19936;-74
2022/10/05 09:39:26;;;;;;;;;;;;;;;16.02;79.42;101442.81;5042019;28;19917;-72
2022/10/05 09:42:07;;;;;;;;;;;;;;;16.06;79.35;101448.97;5035358;28;20008;-72
2022/10/05 09:44:32;;;;;;;;;;;;;;;16.11;79.42;101448.13;5039911;28;19925;-72
2022/10/05 09:47:00;;;;;;;;;;;;;;;16.15;78.51;101444.69;5042557;28;19928;-72
2022/10/05 09:49:37;;;;;;;;;;;;;;;16.16;78.48;101437.66;5035791;28;19923;-72
2022/10/05 09:52:21;;;;;;;;;;;;;;;16.17;78.56;101432.41;5030674;28;19928;-73
2022/10/05 09:55:01;;;;;;;;;;;;;;;16.19;78.90;101439.44;5033584;28;19913;-73
2022/10/05 09:57:45;;;;;;;;;;;;;;;16.24;78.63;101429.88;5030492;28;19951;-72
2022/10/05 10:00:22;;;;;;;;;;;;;;;16.27;78.55;101424.63;5030051;28;19913;-73
2022/10/05 10:03:01;;;;;;;;;;;;;;;16.30;78.54;101427.28;5036156;28;19924;-72
2022/10/05 10:05:28;;;;;;;;;;;;;;;16.34;78.35;101424.69;5041406;28;20305;-73
2022/10/05 10:08:12;;;;;;;;;;;;;;;16.38;78.42;101422.09;5036065;28;20198;-72
2022/10/05 10:10:47;;;;;;;;;;;;;;;16.41;78.49;101412.50;5028593;28;19979;-73
2022/10/05 10:13:12;;;;;;;;;;;;;;;16.48;78.56;101423.94;5040845;28;19916;-72
2022/10/05 10:15:59;;;;;;;;;;;;;;;16.54;78.23;101409.94;5033108;28;20375;-73
2022/10/05 10:18:44;;;;;;;;;;;;;;;16.58;78.14;101407.34;5033130;28;20463;-72
2022/10/05 10:21:25;;;;;;;;;;;;;;;16.65;78.23;101408.28;5039841;28;19924;-73
2022/10/05 10:24:09;;;;;;;;;;;;;;;16.72;77.52;101402.19;5041206;28;19952;-73
2022/10/05 10:26:53;;;;;;;;;;;;;;;16.77;77.20;101392.59;5025854;28;19924;-73
2022/10/05 10:29:27;;;;;;;;;;;;;;;16.82;76.33;101397.88;5031410;28;19972;-72
2022/10/05 10:32:06;;;;;;;;;;;;;;;16.88;77.10;101399.72;5039530;28;19925;-73
2022/10/05 10:34:36;;;;;;;;;;;;;;;16.95;77.09;101391.84;5048334;28;19923;-73
2022/10/05 10:37:09;;;;;;;;;;;;;;;17.02;76.64;101391.03;5029845;28;19917;-73
2022/10/05 10:39:40;;;;;;;;;;;;;;;17.10;76.50;101384.91;5030542;28;20004;-73
2022/10/05 10:42:11;;;;;;;;;;;;;;;17.14;77.10;101373.53;5049890;28;19955;-72
2022/10/05 10:44:46;;;;;;;;;;;;;;;17.21;76.04;101383.22;5054491;28;19916;-73
2022/10/05 10:47:29;;;;;;;;;;;;;;;17.23;76.32;101377.97;5039648;28;20288;-74
2022/10/05 10:50:23;;;;;;;;;;;;;;;17.23;76.35;101378.84;5043639;28;19928;-73
2022/10/05 10:53:15;;;;;;;;;;;;;;;17.28;75.97;101377.13;5044519;28;19943;-72
2022/10/05 10:55:40;;;;;;;;;;;;;;;17.29;75.47;101370.09;5045718;28;19913;-73
2022/10/05 10:58:20;;;;;;;;;;;;;;;17.32;75.73;101359.56;5047420;28;19962;-74
2022/10/05 11:01:08;;;;;;;;;;;;;;;17.37;75.63;101369.25;5032052;28;20053;-73
2022/10/05 11:03:37;;;;;;;;;;;;;;;17.44;75.79;101358.72;5036396;28;19905;-73
2022/10/05 11:06:19;;;;;;;;;;;;;;;17.50;75.54;101354.34;5045337;28;19913;-74
2022/10/05 11:08:45;;;;;;;;;;;;;;;17.56;75.59;101349.09;5050847;28;20378;-74
2022/10/05 11:11:10;;;;;;;;;;;;;;;17.59;75.06;101352.63;5044538;28;19968;-74
2022/10/05 11:13:41;;;;;;;;;;;;;;;17.61;74.87;101359.69;5052562;28;19958;-74
2022/10/05 11:16:06;;;;;;;;;;;;;;;17.62;75.43;101358.78;5053781;28;19913;-74
2022/10/05 11:18:45;;;;;;;;;;;;;;;17.67;75.51;101356.16;5053579;28;19917;-73
2022/10/05 11:21:10;;;;;;;;;;;;;;;17.74;75.37;101352.66;5039756;28;19917;-74
2022/10/05 11:23:45;;;;;;;;;;;;;;;17.76;74.83;101350.91;5045625;28;19928;-74
2022/10/05 11:26:16;;;;;;;;;;;;;;;17.79;75.23;101350.91;5047352;28;20075;-73
2022/10/05 11:28:41;;;;;;;;;;;;;;;17.84;74.48;101340.38;5053736;28;20359;-74
2022/10/05 11:31:06;;;;;;;;;;;;;;;17.86;74.40;101336.88;5053344;28;19982;-74
2022/10/05 11:33:51;;;;;;;;;;;;;;;17.90;74.26;101330.75;5047088;28;19921;-74
2022/10/05 11:36:31;;;;;;;;;;;;;;;17.94;74.49;101333.41;5045308;28;19916;-73
2022/10/05 11:39:14;;;;;;;;;;;;;;;18.01;74.75;101321.97;5053366;28;20410;-73
2022/10/05 11:41:58;;;;;;;;;;;;;;;18.11;74.28;101323.75;5053695;28;19986;-74
2022/10/05 11:44:29;;;;;;;;;;;;;;;18.16;72.94;101314.09;5040049;28;20554;-74
2022/10/05 11:47:02;;;;;;;;;;;;;;;18.19;73.55;101318.44;5044066;28;19924;-74
2022/10/05 11:49:36;;;;;;;;;;;;;;;18.26;72.77;101314.94;5047315;28;19944;-74
2022/10/05 11:52:20;;;;;;;;;;;;;;;18.32;73.20;101314.06;5052754;28;19916;-74
2022/10/05 11:55:00;;;;;;;;;;;;;;;18.35;72.73;101306.13;5036506;28;19928;-74
2022/10/05 11:57:36;;;;;;;;;;;;;;;18.36;71.92;101294.72;5032449;28;19947;-74
2022/10/05 12:00:22;;;;;;;;;;;;;;;18.40;72.57;101292.06;5033464;28;19921;-73
2022/10/05 12:03:08;;;;;;;;;;;;;;;18.55;72.35;101295.53;5032546;28;20009;-73
2022/10/05 12:05:46;;;;;;;;;;;;;;;18.66;72.25;101299.03;5034042;28;19964;-73
2022/10/05 12:08:30;;;;;;;;;;;;;;;18.69;72.18;101277.03;5034430;28;19967;-74
2022/10/05 12:11:06;;;;;;;;;;;;;;;18.72;72.16;101258.56;5034836;28;19928;-73
2022/10/05 12:13:34;;;;;;;;;;;;;;;18.86;70.64;101266.44;5032000;28;19921;-74
2022/10/05 12:16:11;;;;;;;;;;;;;;;19.00;71.05;101254.09;5037737;28;20372;-74
2022/10/05 12:18:51;;;;;;;;;;;;;;;19.19;70.35;101269.81;5029582;28;19921;-73
2022/10/05 12:21:22;;;;;;;;;;;;;;;19.27;71.10;101260.97;5038638;28;19954;-74
2022/10/05 12:23:53;;;;;;;;;;;;;;;19.33;70.12;101251.25;5035877;28;20388;-74
2022/10/05 12:26:21;;;;;;;;;;;;;;;19.38;70.58;101246.81;5034261;28;19913;-74
2022/10/05 12:28:50;;;;;;;;;;;;;;;19.42;69.56;101240.59;5040797;28;20337;-74
2022/10/05 12:31:19;;;;;;;;;;;;;;;19.51;68.99;101240.56;5047292;28;19921;-74
2022/10/05 12:33:54;;;;;;;;;;;;;;;19.59;69.75;101246.66;5043998;28;19929;-74
2022/10/05 12:36:19;;;;;;;;;;;;;;;19.66;69.30;101249.28;5035035;28;21343;-74
2022/10/05 12:38:49;;;;;;;;;;;;;;;19.70;68.61;101238.66;5043640;28;19916;-74
2022/10/05 12:41:19;;;;;;;;;;;;;;;19.68;69.92;101243.06;5050501;28;19916;-74
2022/10/05 12:43:57;;;;;;;;;;;;;;;19.65;68.43;101243.09;5036009;28;20079;-74
2022/10/05 12:46:41;;;;;;;;;;;;;;;19.61;69.39;101234.31;5042868;28;19932;-74
2022/10/05 12:49:17;;;;;;;;;;;;;;;19.68;69.05;101242.19;5030153;28;20004;-74
2022/10/05 12:51:55;;;;;;;;;;;;;;;19.75;68.23;101247.41;5040208;28;19964;-73
2022/10/05 12:54:23;;;;;;;;;;;;;;;19.78;66.88;101251.81;5037250;28;19921;-74
2022/10/05 12:56:48;;;;;;;;;;;;;;;19.87;68.16;101264.09;5051910;28;19920;-74
2022/10/05 12:59:14;;;;;;;;;;;;;;;19.96;67.48;101254.34;5051775;28;19913;-74
2022/10/05 13:01:41;;;;;;;;;;;;;;;20.01;66.71;101248.13;5037264;28;20380;-74
2022/10/05 13:04:19;;;;;;;;;;;;;;;20.02;66.25;101248.13;5043035;28;20433;-74
2022/10/05 13:06:55;;;;;;;;;;;;;;;20.08;67.90;101242.75;5052086;28;20440;-74
2022/10/05 13:09:38;;;;;;;;;;;;;;;20.19;66.34;101233.84;5051590;28;19920;-75